sensor_id;sensor_type;location;lat;lon;timestamp;temperature;humidity
4701;DHT22;8724;51.272;6.554;2022-08-21T00:01:44;22.90;99.90
4701;DHT22;8724;51.272;6.554;2022-08-21T00:04:13;22.80;99.90
4701;DHT22;8724;51.272;6.554;2022-08-21T00:06:48;22.80;99.90
4701;DHT22;8724;51.272;6.554;2022-08-21T00:09:18;22.80;99.90
4701;DHT22;8724;51.272;6.554;2022-08-21T00:11:48;22.80;99.90
4701;DHT22;8724;51.272;6.554;2022-08-21T00:14:17;22.80;99.90
4701;DHT22;8724;51.272;6.554;2022-08-21T00:16:45;22.80;99.90
4701;DHT22;8724;51.272;6.554;2022-08-21T00:19:13;22.80;99.90
4701;DHT22;8724;51.272;6.554;2022-08-21T00:21:42;22.80;99.90
4701;DHT22;8724;51.272;6.554;2022-08-21T00:24:11;22.70;99.90
4701;DHT22;8724;51.272;6.554;2022-08-21T00:26:39;22.70;99.90
4701;DHT22;8724;51.272;6.554;2022-08-21T00:29:11;22.70;99.90
4701;DHT22;8724;51.272;6.554;2022-08-21T00:31:41;22.70;99.90
4701;DHT22;8724;51.272;6.554;2022-08-21T00:34:10;22.70;99.90
4701;DHT22;8724;51.272;6.554;2022-08-21T00:36:39;22.70;99.90
4701;DHT22;8724;51.272;6.554;2022-08-21T00:39:08;22.70;99.90
4701;DHT22;8724;51.272;6.554;2022-08-21T00:41:38;22.60;99.90
4701;DHT22;8724;51.272;6.554;2022-08-21T00:44:09;22.60;99.90
4701;DHT22;8724;51.272;6.554;2022-08-21T00:46:40;22.60;99.90
4701;DHT22;8724;51.272;6.554;2022-08-21T00:49:10;22.60;99.90
4701;DHT22;8724;51.272;6.554;2022-08-21T00:51:42;22.60;99.90
4701;DHT22;8724;51.272;6.554;2022-08-21T00:54:12;22.50;99.90
4701;DHT22;8724;51.272;6.554;2022-08-21T00:56:46;22.50;99.90
4701;DHT22;8724;51.272;6.554;2022-08-21T00:59:18;22.60;99.90
4701;DHT22;8724;51.272;6.554;2022-08-21T01:01:49;22.50;99.90
4701;DHT22;8724;51.272;6.554;2022-08-21T01:04:19;22.50;99.90
4701;DHT22;8724;51.272;6.554;2022-08-21T01:06:47;22.50;99.90
4701;DHT22;8724;51.272;6.554;2022-08-21T01:09:15;22.50;99.90
4701;DHT22;8724;51.272;6.554;2022-08-21T01:11:45;22.40;99.90
4701;DHT22;8724;51.272;6.554;2022-08-21T01:14:14;22.50;99.90
4701;DHT22;8724;51.272;6.554;2022-08-21T01:16:45;22.40;99.90
4701;DHT22;8724;51.272;6.554;2022-08-21T01:19:16;22.40;99.90
4701;DHT22;8724;51.272;6.554;2022-08-21T01:21:46;22.40;99.90
4701;DHT22;8724;51.272;6.554;2022-08-21T01:24:15;22.40;99.90
4701;DHT22;8724;51.272;6.554;2022-08-21T01:26:43;22.40;99.90
4701;DHT22;8724;51.272;6.554;2022-08-21T01:29:26;22.40;99.90
4701;DHT22;8724;51.272;6.554;2022-08-21T01:31:55;22.40;99.90
4701;DHT22;8724;51.272;6.554;2022-08-21T01:34:23;22.40;99.90
4701;DHT22;8724;51.272;6.554;2022-08-21T01:36:53;22.30;99.90
4701;DHT22;8724;51.272;6.554;2022-08-21T01:39:21;22.30;99.90
4701;DHT22;8724;51.272;6.554;2022-08-21T01:41:49;22.30;99.90
4701;DHT22;8724;51.272;6.554;2022-08-21T01:44:20;22.30;99.90
4701;DHT22;8724;51.272;6.554;2022-08-21T01:46:51;22.20;99.90
4701;DHT22;8724;51.272;6.554;2022-08-21T01:49:20;22.20;99.90
4701;DHT22;8724;51.272;6.554;2022-08-21T01:51:48;22.20;99.90
4701;DHT22;8724;51.272;6.554;2022-08-21T01:54:18;22.20;99.90
4701;DHT22;8724;51.272;6.554;2022-08-21T01:56:49;22.20;99.90
4701;DHT22;8724;51.272;6.554;2022-08-21T01:59:17;22.20;99.90
4701;DHT22;8724;51.272;6.554;2022-08-21T02:01:46;22.20;99.90
4701;DHT22;8724;51.272;6.554;2022-08-21T02:04:15;22.20;99.90
4701;DHT22;8724;51.272;6.554;2022-08-21T02:06:43;22.20;99.90
4701;DHT22;8724;51.272;6.554;2022-08-21T02:09:12;22.20;99.90
4701;DHT22;8724;51.272;6.554;2022-08-21T02:11:43;22.20;99.90
4701;DHT22;8724;51.272;6.554;2022-08-21T02:14:13;22.10;99.90
4701;DHT22;8724;51.272;6.554;2022-08-21T02:16:58;22.10;99.90
4701;DHT22;8724;51.272;6.554;2022-08-21T02:19:31;22.10;99.90
4701;DHT22;8724;51.272;6.554;2022-08-21T02:22:06;22.10;99.90
4701;DHT22;8724;51.272;6.554;2022-08-21T02:24:34;22.10;99.90
4701;DHT22;8724;51.272;6.554;2022-08-21T02:27:22;22.10;99.90
4701;DHT22;8724;51.272;6.554;2022-08-21T02:29:53;22.10;99.90
4701;DHT22;8724;51.272;6.554;2022-08-21T02:32:21;22.10;99.90
4701;DHT22;8724;51.272;6.554;2022-08-21T02:34:50;22.10;99.90
4701;DHT22;8724;51.272;6.554;2022-08-21T02:37:18;22.00;99.90
4701;DHT22;8724;51.272;6.554;2022-08-21T02:39:46;22.10;99.90
4701;DHT22;8724;51.272;6.554;2022-08-21T02:42:15;22.10;99.90
4701;DHT22;8724;51.272;6.554;2022-08-21T02:44:45;22.00;99.90
4701;DHT22;8724;51.272;6.554;2022-08-21T02:47:14;22.00;99.90
4701;DHT22;8724;51.272;6.554;2022-08-21T02:49:42;22.00;99.90
4701;DHT22;8724;51.272;6.554;2022-08-21T02:52:11;22.00;99.90
4701;DHT22;8724;51.272;6.554;2022-08-21T02:54:39;22.00;99.90
4701;DHT22;8724;51.272;6.554;2022-08-21T02:57:08;22.00;99.90
4701;DHT22;8724;51.272;6.554;2022-08-21T02:59:36;21.90;99.90
4701;DHT22;8724;51.272;6.554;2022-08-21T03:02:06;22.00;99.90
4701;DHT22;8724;51.272;6.554;2022-08-21T03:04:34;21.90;99.90
4701;DHT22;8724;51.272;6.554;2022-08-21T03:07:03;21.90;99.90
4701;DHT22;8724;51.272;6.554;2022-08-21T03:09:37;21.90;99.90
4701;DHT22;8724;51.272;6.554;2022-08-21T03:12:11;21.90;99.90
4701;DHT22;8724;51.272;6.554;2022-08-21T03:14:39;21.90;99.90
4701;DHT22;8724;51.272;6.554;2022-08-21T03:17:09;21.80;99.90
4701;DHT22;8724;51.272;6.554;2022-08-21T03:19:37;21.80;99.90
4701;DHT22;8724;51.272;6.554;2022-08-21T03:22:06;21.80;99.90
4701;DHT22;8724;51.272;6.554;2022-08-21T03:24:34;21.80;99.90
4701;DHT22;8724;51.272;6.554;2022-08-21T03:27:03;21.80;99.90
4701;DHT22;8724;51.272;6.554;2022-08-21T03:29:35;21.80;99.90
4701;DHT22;8724;51.272;6.554;2022-08-21T03:32:04;21.80;99.90
4701;DHT22;8724;51.272;6.554;2022-08-21T03:34:33;21.80;99.90
4701;DHT22;8724;51.272;6.554;2022-08-21T03:37:02;21.80;99.90
4701;DHT22;8724;51.272;6.554;2022-08-21T03:39:31;21.80;99.90
4701;DHT22;8724;51.272;6.554;2022-08-21T03:42:00;21.70;99.90
4701;DHT22;8724;51.272;6.554;2022-08-21T03:44:28;21.80;99.90
4701;DHT22;8724;51.272;6.554;2022-08-21T03:46:57;21.70;99.90
4701;DHT22;8724;51.272;6.554;2022-08-21T03:49:25;21.70;99.90
4701;DHT22;8724;51.272;6.554;2022-08-21T03:51:55;21.70;99.90
4701;DHT22;8724;51.272;6.554;2022-08-21T03:54:25;21.70;99.90
4701;DHT22;8724;51.272;6.554;2022-08-21T03:56:54;21.70;99.90
4701;DHT22;8724;51.272;6.554;2022-08-21T03:59:23;21.60;99.90
4701;DHT22;8724;51.272;6.554;2022-08-21T04:01:53;21.60;99.90
4701;DHT22;8724;51.272;6.554;2022-08-21T04:04:22;21.60;99.90
4701;DHT22;8724;51.272;6.554;2022-08-21T04:06:51;21.60;99.90
4701;DHT22;8724;51.272;6.554;2022-08-21T04:09:20;21.60;99.90
4701;DHT22;8724;51.272;6.554;2022-08-21T04:11:49;21.60;99.90
4701;DHT22;8724;51.272;6.554;2022-08-21T04:14:18;21.60;99.90
4701;DHT22;8724;51.272;6.554;2022-08-21T04:16:46;21.60;99.90
4701;DHT22;8724;51.272;6.554;2022-08-21T04:19:14;21.50;99.90
4701;DHT22;8724;51.272;6.554;2022-08-21T04:21:43;21.50;99.90
4701;DHT22;8724;51.272;6.554;2022-08-21T04:24:12;21.50;99.90
4701;DHT22;8724;51.272;6.554;2022-08-21T04:26:41;21.50;99.90
4701;DHT22;8724;51.272;6.554;2022-08-21T04:29:10;21.50;99.90
4701;DHT22;8724;51.272;6.554;2022-08-21T04:31:38;21.50;99.90
4701;DHT22;8724;51.272;6.554;2022-08-21T04:34:06;21.50;99.90
4701;DHT22;8724;51.272;6.554;2022-08-21T04:36:35;21.50;99.90
4701;DHT22;8724;51.272;6.554;2022-08-21T04:39:03;21.50;99.90
4701;DHT22;8724;51.272;6.554;2022-08-21T04:41:36;21.50;99.90
4701;DHT22;8724;51.272;6.554;2022-08-21T04:44:06;21.40;99.90
4701;DHT22;8724;51.272;6.554;2022-08-21T04:46:35;21.50;99.90
4701;DHT22;8724;51.272;6.554;2022-08-21T04:49:04;21.50;99.90
4701;DHT22;8724;51.272;6.554;2022-08-21T04:51:35;21.50;99.90
4701;DHT22;8724;51.272;6.554;2022-08-21T04:54:08;21.40;99.90
4701;DHT22;8724;51.272;6.554;2022-08-21T04:56:41;21.40;99.90
4701;DHT22;8724;51.272;6.554;2022-08-21T04:59:15;21.40;99.90
4701;DHT22;8724;51.272;6.554;2022-08-21T05:01:45;21.40;99.90
4701;DHT22;8724;51.272;6.554;2022-08-21T05:04:18;21.40;99.90
4701;DHT22;8724;51.272;6.554;2022-08-21T05:06:50;21.40;99.90
4701;DHT22;8724;51.272;6.554;2022-08-21T05:09:21;21.30;99.90
4701;DHT22;8724;51.272;6.554;2022-08-21T05:11:50;21.40;99.90
4701;DHT22;8724;51.272;6.554;2022-08-21T05:14:21;21.30;99.90
4701;DHT22;8724;51.272;6.554;2022-08-21T05:16:49;21.30;99.90
4701;DHT22;8724;51.272;6.554;2022-08-21T05:19:18;21.30;99.90
4701;DHT22;8724;51.272;6.554;2022-08-21T05:21:46;21.30;99.90
4701;DHT22;8724;51.272;6.554;2022-08-21T05:24:15;21.30;99.90
4701;DHT22;8724;51.272;6.554;2022-08-21T05:26:44;21.30;99.90
4701;DHT22;8724;51.272;6.554;2022-08-21T05:29:14;21.30;99.90
4701;DHT22;8724;51.272;6.554;2022-08-21T05:31:46;21.20;99.90
4701;DHT22;8724;51.272;6.554;2022-08-21T05:34:19;21.30;99.90
4701;DHT22;8724;51.272;6.554;2022-08-21T05:36:48;21.20;99.90
4701;DHT22;8724;51.272;6.554;2022-08-21T05:39:17;21.20;99.90
4701;DHT22;8724;51.272;6.554;2022-08-21T05:41:45;21.20;99.90
4701;DHT22;8724;51.272;6.554;2022-08-21T05:44:14;21.20;99.90
4701;DHT22;8724;51.272;6.554;2022-08-21T05:46:43;21.20;99.90
4701;DHT22;8724;51.272;6.554;2022-08-21T05:49:13;21.20;99.90
4701;DHT22;8724;51.272;6.554;2022-08-21T05:51:42;21.20;99.90
4701;DHT22;8724;51.272;6.554;2022-08-21T05:54:10;21.20;99.90
4701;DHT22;8724;51.272;6.554;2022-08-21T05:56:38;21.20;99.90
4701;DHT22;8724;51.272;6.554;2022-08-21T05:59:07;21.20;99.90
4701;DHT22;8724;51.272;6.554;2022-08-21T06:01:35;21.20;99.90
4701;DHT22;8724;51.272;6.554;2022-08-21T06:04:03;21.10;99.90
4701;DHT22;8724;51.272;6.554;2022-08-21T06:06:34;21.10;99.90
4701;DHT22;8724;51.272;6.554;2022-08-21T06:09:03;21.10;99.90
4701;DHT22;8724;51.272;6.554;2022-08-21T06:11:32;21.10;99.90
4701;DHT22;8724;51.272;6.554;2022-08-21T06:14:01;21.10;99.90
4701;DHT22;8724;51.272;6.554;2022-08-21T06:16:29;21.10;99.90
4701;DHT22;8724;51.272;6.554;2022-08-21T06:18:58;21.10;99.90
4701;DHT22;8724;51.272;6.554;2022-08-21T06:21:29;21.10;99.90
4701;DHT22;8724;51.272;6.554;2022-08-21T06:23:58;21.20;99.90
4701;DHT22;8724;51.272;6.554;2022-08-21T06:26:27;21.20;99.90
4701;DHT22;8724;51.272;6.554;2022-08-21T06:28:56;21.20;99.90
4701;DHT22;8724;51.272;6.554;2022-08-21T06:31:27;21.20;99.90
4701;DHT22;8724;51.272;6.554;2022-08-21T06:33:56;21.20;99.90
4701;DHT22;8724;51.272;6.554;2022-08-21T06:36:24;21.20;99.90
4701;DHT22;8724;51.272;6.554;2022-08-21T06:38:52;21.20;99.90
4701;DHT22;8724;51.272;6.554;2022-08-21T06:41:25;21.20;99.90
4701;DHT22;8724;51.272;6.554;2022-08-21T06:43:54;21.20;99.90
4701;DHT22;8724;51.272;6.554;2022-08-21T06:46:24;21.20;99.90
4701;DHT22;8724;51.272;6.554;2022-08-21T06:48:53;21.30;99.90
4701;DHT22;8724;51.272;6.554;2022-08-21T06:51:23;21.20;99.90
4701;DHT22;8724;51.272;6.554;2022-08-21T06:53:52;21.20;99.90
4701;DHT22;8724;51.272;6.554;2022-08-21T06:56:21;21.30;99.90
4701;DHT22;8724;51.272;6.554;2022-08-21T06:58:51;21.30;99.90
4701;DHT22;8724;51.272;6.554;2022-08-21T07:01:20;21.30;99.90
4701;DHT22;8724;51.272;6.554;2022-08-21T07:03:50;21.30;99.90
4701;DHT22;8724;51.272;6.554;2022-08-21T07:06:19;21.30;99.90
4701;DHT22;8724;51.272;6.554;2022-08-21T07:08:47;21.30;99.90
4701;DHT22;8724;51.272;6.554;2022-08-21T07:11:19;21.30;99.90
4701;DHT22;8724;51.272;6.554;2022-08-21T07:13:48;21.30;99.90
4701;DHT22;8724;51.272;6.554;2022-08-21T07:16:20;21.30;99.90
4701;DHT22;8724;51.272;6.554;2022-08-21T07:18:49;21.30;99.90
4701;DHT22;8724;51.272;6.554;2022-08-21T07:21:17;21.30;99.90
4701;DHT22;8724;51.272;6.554;2022-08-21T07:23:52;21.40;99.90
4701;DHT22;8724;51.272;6.554;2022-08-21T07:26:23;21.40;99.90
4701;DHT22;8724;51.272;6.554;2022-08-21T07:28:53;21.40;99.90
4701;DHT22;8724;51.272;6.554;2022-08-21T07:31:24;21.40;99.90
4701;DHT22;8724;51.272;6.554;2022-08-21T07:33:53;21.40;99.90
4701;DHT22;8724;51.272;6.554;2022-08-21T07:36:22;21.40;99.90
4701;DHT22;8724;51.272;6.554;2022-08-21T07:38:50;21.40;99.90
4701;DHT22;8724;51.272;6.554;2022-08-21T07:41:21;21.40;99.90
4701;DHT22;8724;51.272;6.554;2022-08-21T07:43:50;21.50;99.90
4701;DHT22;8724;51.272;6.554;2022-08-21T07:46:19;21.40;99.90
4701;DHT22;8724;51.272;6.554;2022-08-21T07:48:49;21.40;99.90
4701;DHT22;8724;51.272;6.554;2022-08-21T07:51:23;21.40;99.90
4701;DHT22;8724;51.272;6.554;2022-08-21T07:53:54;21.40;99.90
4701;DHT22;8724;51.272;6.554;2022-08-21T07:56:23;21.50;99.90
4701;DHT22;8724;51.272;6.554;2022-08-21T07:58:51;21.40;99.90
4701;DHT22;8724;51.272;6.554;2022-08-21T08:01:20;21.40;99.90
4701;DHT22;8724;51.272;6.554;2022-08-21T08:03:50;21.40;99.90
4701;DHT22;8724;51.272;6.554;2022-08-21T08:06:19;21.50;99.90
4701;DHT22;8724;51.272;6.554;2022-08-21T08:08:47;21.50;99.90
4701;DHT22;8724;51.272;6.554;2022-08-21T08:11:16;21.50;99.90
4701;DHT22;8724;51.272;6.554;2022-08-21T08:13:47;21.50;99.90
4701;DHT22;8724;51.272;6.554;2022-08-21T08:16:15;21.50;99.90
4701;DHT22;8724;51.272;6.554;2022-08-21T08:18:44;21.50;99.90
4701;DHT22;8724;51.272;6.554;2022-08-21T08:21:14;21.50;99.90
4701;DHT22;8724;51.272;6.554;2022-08-21T08:23:43;21.60;99.90
4701;DHT22;8724;51.272;6.554;2022-08-21T08:26:12;21.60;99.90
4701;DHT22;8724;51.272;6.554;2022-08-21T08:28:42;21.60;99.90
4701;DHT22;8724;51.272;6.554;2022-08-21T08:31:11;21.60;99.90
4701;DHT22;8724;51.272;6.554;2022-08-21T08:33:40;21.60;99.90
4701;DHT22;8724;51.272;6.554;2022-08-21T08:36:15;21.60;99.90
4701;DHT22;8724;51.272;6.554;2022-08-21T08:38:46;21.60;99.90
4701;DHT22;8724;51.272;6.554;2022-08-21T08:41:18;21.70;99.90
4701;DHT22;8724;51.272;6.554;2022-08-21T08:43:53;21.70;99.90
4701;DHT22;8724;51.272;6.554;2022-08-21T08:46:30;21.70;99.90
4701;DHT22;8724;51.272;6.554;2022-08-21T08:49:04;21.70;99.90
4701;DHT22;8724;51.272;6.554;2022-08-21T08:51:40;21.70;99.90
4701;DHT22;8724;51.272;6.554;2022-08-21T08:54:15;21.70;99.90
4701;DHT22;8724;51.272;6.554;2022-08-21T08:56:44;21.70;99.90
4701;DHT22;8724;51.272;6.554;2022-08-21T08:59:17;21.70;99.90
4701;DHT22;8724;51.272;6.554;2022-08-21T09:01:47;21.80;99.90
4701;DHT22;8724;51.272;6.554;2022-08-21T09:04:20;21.80;99.90
4701;DHT22;8724;51.272;6.554;2022-08-21T09:07:00;21.80;99.90
4701;DHT22;8724;51.272;6.554;2022-08-21T09:09:38;21.90;99.90
4701;DHT22;8724;51.272;6.554;2022-08-21T09:12:16;21.90;99.90
4701;DHT22;8724;51.272;6.554;2022-08-21T09:14:53;21.90;99.90
4701;DHT22;8724;51.272;6.554;2022-08-21T09:17:40;21.90;99.90
4701;DHT22;8724;51.272;6.554;2022-08-21T09:20:19;21.90;99.90
4701;DHT22;8724;51.272;6.554;2022-08-21T09:23:01;21.90;99.90
4701;DHT22;8724;51.272;6.554;2022-08-21T09:25:38;21.90;99.90
4701;DHT22;8724;51.272;6.554;2022-08-21T09:28:11;21.90;99.90
4701;DHT22;8724;51.272;6.554;2022-08-21T09:30:42;22.00;99.90
4701;DHT22;8724;51.272;6.554;2022-08-21T09:33:12;22.00;99.90
4701;DHT22;8724;51.272;6.554;2022-08-21T09:35:51;22.00;99.90
4701;DHT22;8724;51.272;6.554;2022-08-21T09:38:28;22.00;99.90
4701;DHT22;8724;51.272;6.554;2022-08-21T09:40:59;22.00;99.90
4701;DHT22;8724;51.272;6.554;2022-08-21T09:43:28;22.00;99.90
4701;DHT22;8724;51.272;6.554;2022-08-21T09:46:10;22.00;99.90
4701;DHT22;8724;51.272;6.554;2022-08-21T09:48:41;22.00;99.90
4701;DHT22;8724;51.272;6.554;2022-08-21T09:51:13;22.00;99.90
4701;DHT22;8724;51.272;6.554;2022-08-21T09:53:47;22.10;99.90
4701;DHT22;8724;51.272;6.554;2022-08-21T09:56:19;22.10;99.90
4701;DHT22;8724;51.272;6.554;2022-08-21T09:59:15;22.10;99.90
4701;DHT22;8724;51.272;6.554;2022-08-21T10:01:46;22.10;99.90
4701;DHT22;8724;51.272;6.554;2022-08-21T10:04:15;22.10;99.90
4701;DHT22;8724;51.272;6.554;2022-08-21T10:06:49;22.10;99.90
4701;DHT22;8724;51.272;6.554;2022-08-21T10:09:21;22.10;99.90
4701;DHT22;8724;51.272;6.554;2022-08-21T10:11:55;22.10;99.90
4701;DHT22;8724;51.272;6.554;2022-08-21T10:14:39;22.20;99.90
4701;DHT22;8724;51.272;6.554;2022-08-21T10:17:15;22.20;99.90
4701;DHT22;8724;51.272;6.554;2022-08-21T10:19:51;22.20;99.90
4701;DHT22;8724;51.272;6.554;2022-08-21T10:22:32;22.20;99.90
4701;DHT22;8724;51.272;6.554;2022-08-21T10:25:18;22.20;99.90
4701;DHT22;8724;51.272;6.554;2022-08-21T10:27:54;22.20;99.90
4701;DHT22;8724;51.272;6.554;2022-08-21T10:30:36;22.20;99.90
4701;DHT22;8724;51.272;6.554;2022-08-21T10:33:17;22.20;99.90
4701;DHT22;8724;51.272;6.554;2022-08-21T10:35:53;22.30;99.90
4701;DHT22;8724;51.272;6.554;2022-08-21T10:38:55;22.30;99.90
4701;DHT22;8724;51.272;6.554;2022-08-21T10:41:59;22.30;99.90
4701;DHT22;8724;51.272;6.554;2022-08-21T10:44:37;22.30;99.90
4701;DHT22;8724;51.272;6.554;2022-08-21T10:47:12;22.30;99.90
4701;DHT22;8724;51.272;6.554;2022-08-21T10:49:52;22.30;99.90
4701;DHT22;8724;51.272;6.554;2022-08-21T10:52:36;22.30;99.90
4701;DHT22;8724;51.272;6.554;2022-08-21T10:55:14;22.40;99.90
4701;DHT22;8724;51.272;6.554;2022-08-21T10:57:50;22.40;99.90
4701;DHT22;8724;51.272;6.554;2022-08-21T11:00:21;22.40;99.90
4701;DHT22;8724;51.272;6.554;2022-08-21T11:02:55;22.40;99.90
4701;DHT22;8724;51.272;6.554;2022-08-21T11:05:29;22.40;99.90
4701;DHT22;8724;51.272;6.554;2022-08-21T11:08:02;22.40;99.90
4701;DHT22;8724;51.272;6.554;2022-08-21T11:10:37;22.50;99.90
4701;DHT22;8724;51.272;6.554;2022-08-21T11:13:30;22.50;99.90
4701;DHT22;8724;51.272;6.554;2022-08-21T11:16:07;22.50;99.90
4701;DHT22;8724;51.272;6.554;2022-08-21T11:18:39;22.50;99.90
4701;DHT22;8724;51.272;6.554;2022-08-21T11:21:28;22.50;99.90
4701;DHT22;8724;51.272;6.554;2022-08-21T11:24:02;22.60;99.90
4701;DHT22;8724;51.272;6.554;2022-08-21T11:26:35;22.60;99.90
4701;DHT22;8724;51.272;6.554;2022-08-21T11:29:13;22.70;99.90
4701;DHT22;8724;51.272;6.554;2022-08-21T11:31:54;22.70;99.90
4701;DHT22;8724;51.272;6.554;2022-08-21T11:34:45;22.70;99.90
4701;DHT22;8724;51.272;6.554;2022-08-21T11:37:23;22.70;99.90
4701;DHT22;8724;51.272;6.554;2022-08-21T11:40:01;22.70;99.90
4701;DHT22;8724;51.272;6.554;2022-08-21T11:42:36;22.80;99.90
4701;DHT22;8724;51.272;6.554;2022-08-21T11:45:19;22.80;99.90
4701;DHT22;8724;51.272;6.554;2022-08-21T11:48:00;22.80;99.90
4701;DHT22;8724;51.272;6.554;2022-08-21T11:50:32;22.80;99.90
4701;DHT22;8724;51.272;6.554;2022-08-21T11:53:07;22.80;99.90
4701;DHT22;8724;51.272;6.554;2022-08-21T11:55:41;22.90;99.90
4701;DHT22;8724;51.272;6.554;2022-08-21T11:58:14;22.90;99.90
4701;DHT22;8724;51.272;6.554;2022-08-21T12:00:49;22.90;99.90
4701;DHT22;8724;51.272;6.554;2022-08-21T12:03:25;23.00;99.90
4701;DHT22;8724;51.272;6.554;2022-08-21T12:05:56;23.00;99.90
4701;DHT22;8724;51.272;6.554;2022-08-21T12:08:30;23.00;99.90
4701;DHT22;8724;51.272;6.554;2022-08-21T12:11:03;23.10;99.90
4701;DHT22;8724;51.272;6.554;2022-08-21T12:13:34;23.10;99.90
4701;DHT22;8724;51.272;6.554;2022-08-21T12:16:14;23.10;99.90
4701;DHT22;8724;51.272;6.554;2022-08-21T12:18:43;23.10;99.90
4701;DHT22;8724;51.272;6.554;2022-08-21T12:21:21;23.20;99.90
4701;DHT22;8724;51.272;6.554;2022-08-21T12:24:01;23.20;99.90
4701;DHT22;8724;51.272;6.554;2022-08-21T12:26:32;23.20;99.90
4701;DHT22;8724;51.272;6.554;2022-08-21T12:29:11;23.20;99.90
4701;DHT22;8724;51.272;6.554;2022-08-21T12:32:03;23.30;99.90
4701;DHT22;8724;51.272;6.554;2022-08-21T12:34:35;23.30;99.90
4701;DHT22;8724;51.272;6.554;2022-08-21T12:37:11;23.30;99.90
4701;DHT22;8724;51.272;6.554;2022-08-21T12:39:46;23.40;99.90
4701;DHT22;8724;51.272;6.554;2022-08-21T12:42:17;23.40;99.90
4701;DHT22;8724;51.272;6.554;2022-08-21T12:44:49;23.40;99.90
4701;DHT22;8724;51.272;6.554;2022-08-21T12:47:25;23.40;99.90
4701;DHT22;8724;51.272;6.554;2022-08-21T12:50:01;23.50;99.90
4701;DHT22;8724;51.272;6.554;2022-08-21T12:52:34;23.50;99.90
4701;DHT22;8724;51.272;6.554;2022-08-21T12:55:07;23.50;99.90
4701;DHT22;8724;51.272;6.554;2022-08-21T12:57:40;23.50;99.90
4701;DHT22;8724;51.272;6.554;2022-08-21T13:00:11;23.50;99.90
4701;DHT22;8724;51.272;6.554;2022-08-21T13:02:47;23.50;99.90
4701;DHT22;8724;51.272;6.554;2022-08-21T13:05:21;23.50;99.90
4701;DHT22;8724;51.272;6.554;2022-08-21T13:07:50;23.60;99.90
4701;DHT22;8724;51.272;6.554;2022-08-21T13:10:22;23.60;99.90
4701;DHT22;8724;51.272;6.554;2022-08-21T13:12:54;23.70;99.90
4701;DHT22;8724;51.272;6.554;2022-08-21T13:15:26;23.60;99.90
4701;DHT22;8724;51.272;6.554;2022-08-21T13:18:02;23.60;99.90
4701;DHT22;8724;51.272;6.554;2022-08-21T13:20:35;23.70;99.90
4701;DHT22;8724;51.272;6.554;2022-08-21T13:23:15;23.70;99.90
4701;DHT22;8724;51.272;6.554;2022-08-21T13:25:45;23.70;99.90
4701;DHT22;8724;51.272;6.554;2022-08-21T13:28:14;23.70;99.90
4701;DHT22;8724;51.272;6.554;2022-08-21T13:30:44;23.80;99.90
4701;DHT22;8724;51.272;6.554;2022-08-21T13:33:16;23.80;99.90
4701;DHT22;8724;51.272;6.554;2022-08-21T13:35:48;24.10;99.90
4701;DHT22;8724;51.272;6.554;2022-08-21T13:38:20;23.90;99.90
4701;DHT22;8724;51.272;6.554;2022-08-21T13:40:56;23.90;99.90
4701;DHT22;8724;51.272;6.554;2022-08-21T13:43:28;24.00;99.90
4701;DHT22;8724;51.272;6.554;2022-08-21T13:46:00;24.10;99.90
4701;DHT22;8724;51.272;6.554;2022-08-21T13:48:33;24.10;99.90
4701;DHT22;8724;51.272;6.554;2022-08-21T13:51:03;24.10;99.90
4701;DHT22;8724;51.272;6.554;2022-08-21T13:53:35;24.10;99.90
4701;DHT22;8724;51.272;6.554;2022-08-21T13:56:04;24.10;99.90
4701;DHT22;8724;51.272;6.554;2022-08-21T13:58:43;24.20;99.90
4701;DHT22;8724;51.272;6.554;2022-08-21T14:01:19;24.20;99.90
4701;DHT22;8724;51.272;6.554;2022-08-21T14:03:53;24.20;99.90
4701;DHT22;8724;51.272;6.554;2022-08-21T14:06:27;24.30;99.90
4701;DHT22;8724;51.272;6.554;2022-08-21T14:08:59;24.30;99.90
4701;DHT22;8724;51.272;6.554;2022-08-21T14:11:33;24.40;99.90
4701;DHT22;8724;51.272;6.554;2022-08-21T14:14:04;24.40;99.90
4701;DHT22;8724;51.272;6.554;2022-08-21T14:16:44;24.40;99.90
4701;DHT22;8724;51.272;6.554;2022-08-21T14:19:21;24.40;99.90
4701;DHT22;8724;51.272;6.554;2022-08-21T14:21:51;24.50;99.90
4701;DHT22;8724;51.272;6.554;2022-08-21T14:24:29;24.50;99.90
4701;DHT22;8724;51.272;6.554;2022-08-21T14:27:04;24.60;99.90
4701;DHT22;8724;51.272;6.554;2022-08-21T14:29:35;24.60;99.90
4701;DHT22;8724;51.272;6.554;2022-08-21T14:32:14;24.60;99.90
4701;DHT22;8724;51.272;6.554;2022-08-21T14:34:52;24.70;99.90
4701;DHT22;8724;51.272;6.554;2022-08-21T14:37:25;24.70;99.90
4701;DHT22;8724;51.272;6.554;2022-08-21T14:39:54;24.70;99.90
4701;DHT22;8724;51.272;6.554;2022-08-21T14:42:23;24.80;99.90
4701;DHT22;8724;51.272;6.554;2022-08-21T14:44:55;24.80;99.90
4701;DHT22;8724;51.272;6.554;2022-08-21T14:47:25;24.90;99.90
4701;DHT22;8724;51.272;6.554;2022-08-21T14:49:56;24.90;99.90
4701;DHT22;8724;51.272;6.554;2022-08-21T14:52:25;25.00;99.90
4701;DHT22;8724;51.272;6.554;2022-08-21T14:54:53;25.00;99.90
4701;DHT22;8724;51.272;6.554;2022-08-21T14:57:22;25.00;99.90
4701;DHT22;8724;51.272;6.554;2022-08-21T14:59:52;25.00;99.90
4701;DHT22;8724;51.272;6.554;2022-08-21T15:02:24;25.10;99.90
4701;DHT22;8724;51.272;6.554;2022-08-21T15:04:53;25.10;99.90
4701;DHT22;8724;51.272;6.554;2022-08-21T15:07:23;25.10;99.90
4701;DHT22;8724;51.272;6.554;2022-08-21T15:09:51;25.20;99.90
4701;DHT22;8724;51.272;6.554;2022-08-21T15:12:20;25.30;99.90
4701;DHT22;8724;51.272;6.554;2022-08-21T15:14:49;25.30;99.90
4701;DHT22;8724;51.272;6.554;2022-08-21T15:17:17;25.30;99.90
4701;DHT22;8724;51.272;6.554;2022-08-21T15:19:46;25.30;99.90
4701;DHT22;8724;51.272;6.554;2022-08-21T15:22:14;25.40;99.90
4701;DHT22;8724;51.272;6.554;2022-08-21T15:24:55;25.40;99.90
4701;DHT22;8724;51.272;6.554;2022-08-21T15:27:24;25.50;99.90
4701;DHT22;8724;51.272;6.554;2022-08-21T15:29:52;25.50;99.90
4701;DHT22;8724;51.272;6.554;2022-08-21T15:32:23;25.60;99.90
4701;DHT22;8724;51.272;6.554;2022-08-21T15:34:53;25.70;99.90
4701;DHT22;8724;51.272;6.554;2022-08-21T15:37:23;25.70;99.90
4701;DHT22;8724;51.272;6.554;2022-08-21T15:39:52;25.80;99.90
4701;DHT22;8724;51.272;6.554;2022-08-21T15:42:23;25.80;99.90
4701;DHT22;8724;51.272;6.554;2022-08-21T15:44:54;25.90;99.90
4701;DHT22;8724;51.272;6.554;2022-08-21T15:47:26;25.90;99.90
4701;DHT22;8724;51.272;6.554;2022-08-21T15:49:56;25.90;99.90
4701;DHT22;8724;51.272;6.554;2022-08-21T15:52:25;26.00;99.90
4701;DHT22;8724;51.272;6.554;2022-08-21T15:54:53;26.00;99.90
4701;DHT22;8724;51.272;6.554;2022-08-21T15:57:24;26.10;99.90
4701;DHT22;8724;51.272;6.554;2022-08-21T15:59:57;26.30;99.90
4701;DHT22;8724;51.272;6.554;2022-08-21T16:02:29;26.40;99.90
4701;DHT22;8724;51.272;6.554;2022-08-21T16:04:58;26.40;99.90
4701;DHT22;8724;51.272;6.554;2022-08-21T16:07:27;26.40;99.90
4701;DHT22;8724;51.272;6.554;2022-08-21T16:09:55;26.40;99.90
4701;DHT22;8724;51.272;6.554;2022-08-21T16:12:27;26.30;99.90
4701;DHT22;8724;51.272;6.554;2022-08-21T16:14:58;26.20;99.90
4701;DHT22;8724;51.272;6.554;2022-08-21T16:17:29;26.10;99.90
4701;DHT22;8724;51.272;6.554;2022-08-21T16:19:58;26.00;99.90
4701;DHT22;8724;51.272;6.554;2022-08-21T16:22:27;26.00;99.90
4701;DHT22;8724;51.272;6.554;2022-08-21T16:25:11;26.00;99.90
4701;DHT22;8724;51.272;6.554;2022-08-21T16:27:44;25.90;99.90
4701;DHT22;8724;51.272;6.554;2022-08-21T16:30:16;25.90;99.90
4701;DHT22;8724;51.272;6.554;2022-08-21T16:32:45;25.80;99.90